sensor_id;sensor_type;location;lat;lon;timestamp;P1;durP1;ratioP1;P2;durP2;ratioP2
50954;SDS011;36966;48.064;-0.792;2022-08-24T00:00:18;2.67;;;0.20;;
50954;SDS011;36966;48.064;-0.792;2022-08-24T00:02:39;0.38;;;0.10;;
50954;SDS011;36966;48.064;-0.792;2022-08-24T00:04:58;0.70;;;0.40;;
50954;SDS011;36966;48.064;-0.792;2022-08-24T00:07:19;4.45;;;1.20;;
50954;SDS011;36966;48.064;-0.792;2022-08-24T00:09:39;1.45;;;0.28;;
50954;SDS011;36966;48.064;-0.792;2022-08-24T00:11:59;1.83;;;0.30;;
50954;SDS011;36966;48.064;-0.792;2022-08-24T00:14:19;2.83;;;0.20;;
50954;SDS011;36966;48.064;-0.792;2022-08-24T00:16:39;0.82;;;0.28;;
50954;SDS011;36966;48.064;-0.792;2022-08-24T00:18:58;0.40;;;0.17;;
50954;SDS011;36966;48.064;-0.792;2022-08-24T00:21:18;2.28;;;0.20;;
50954;SDS011;36966;48.064;-0.792;2022-08-24T00:23:38;0.55;;;0.30;;
50954;SDS011;36966;48.064;-0.792;2022-08-24T00:25:58;0.20;;;0.10;;
50954;SDS011;36966;48.064;-0.792;2022-08-24T00:28:17;0.93;;;0.10;;
50954;SDS011;36966;48.064;-0.792;2022-08-24T00:30:36;0.82;;;0.20;;
50954;SDS011;36966;48.064;-0.792;2022-08-24T00:32:55;3.17;;;0.57;;
50954;SDS011;36966;48.064;-0.792;2022-08-24T00:35:15;1.65;;;0.20;;
50954;SDS011;36966;48.064;-0.792;2022-08-24T00:37:38;1.85;;;0.20;;
50954;SDS011;36966;48.064;-0.792;2022-08-24T00:39:58;0.40;;;0.20;;
50954;SDS011;36966;48.064;-0.792;2022-08-24T00:42:17;0.50;;;0.10;;
50954;SDS011;36966;48.064;-0.792;2022-08-24T00:44:37;1.08;;;0.20;;
50954;SDS011;36966;48.064;-0.792;2022-08-24T00:47:04;0.32;;;0.20;;
50954;SDS011;36966;48.064;-0.792;2022-08-24T00:49:41;4.35;;;0.20;;
50954;SDS011;36966;48.064;-0.792;2022-08-24T00:54:29;0.25;;;0.10;;
50954;SDS011;36966;48.064;-0.792;2022-08-24T00:56:52;1.75;;;0.98;;
50954;SDS011;36966;48.064;-0.792;2022-08-24T00:59:25;1.23;;;0.28;;
50954;SDS011;36966;48.064;-0.792;2022-08-24T01:01:54;2.58;;;0.20;;
50954;SDS011;36966;48.064;-0.792;2022-08-24T01:04:17;0.80;;;0.20;;
50954;SDS011;36966;48.064;-0.792;2022-08-24T01:06:42;0.73;;;0.30;;
50954;SDS011;36966;48.064;-0.792;2022-08-24T01:09:03;1.52;;;0.60;;
50954;SDS011;36966;48.064;-0.792;2022-08-24T01:11:25;2.40;;;0.30;;
50954;SDS011;36966;48.064;-0.792;2022-08-24T01:13:46;0.70;;;0.32;;
50954;SDS011;36966;48.064;-0.792;2022-08-24T01:16:07;0.30;;;0.20;;
50954;SDS011;36966;48.064;-0.792;2022-08-24T01:18:27;2.17;;;0.28;;
50954;SDS011;36966;48.064;-0.792;2022-08-24T01:21:09;4.05;;;0.40;;
50954;SDS011;36966;48.064;-0.792;2022-08-24T01:23:41;3.03;;;0.40;;
50954;SDS011;36966;48.064;-0.792;2022-08-24T01:26:06;0.55;;;0.28;;
50954;SDS011;36966;48.064;-0.792;2022-08-24T01:28:27;1.30;;;0.20;;
50954;SDS011;36966;48.064;-0.792;2022-08-24T01:30:48;2.25;;;0.20;;
50954;SDS011;36966;48.064;-0.792;2022-08-24T01:33:09;2.03;;;0.20;;
50954;SDS011;36966;48.064;-0.792;2022-08-24T01:35:39;1.80;;;0.30;;
50954;SDS011;36966;48.064;-0.792;2022-08-24T01:37:59;0.70;;;0.20;;
50954;SDS011;36966;48.064;-0.792;2022-08-24T01:40:21;3.05;;;0.30;;
50954;SDS011;36966;48.064;-0.792;2022-08-24T01:42:49;0.73;;;0.30;;
50954;SDS011;36966;48.064;-0.792;2022-08-24T01:45:10;1.25;;;0.10;;
50954;SDS011;36966;48.064;-0.792;2022-08-24T01:47:29;2.00;;;0.30;;
50954;SDS011;36966;48.064;-0.792;2022-08-24T01:49:48;0.20;;;0.20;;
50954;SDS011;36966;48.064;-0.792;2022-08-24T01:52:09;4.40;;;0.40;;
50954;SDS011;36966;48.064;-0.792;2022-08-24T01:54:30;0.20;;;0.10;;
50954;SDS011;36966;48.064;-0.792;2022-08-24T01:56:50;0.35;;;0.20;;
50954;SDS011;36966;48.064;-0.792;2022-08-24T01:59:09;0.35;;;0.20;;
50954;SDS011;36966;48.064;-0.792;2022-08-24T02:01:36;1.30;;;0.45;;
50954;SDS011;36966;48.064;-0.792;2022-08-24T02:03:59;0.52;;;0.22;;
50954;SDS011;36966;48.064;-0.792;2022-08-24T02:06:22;3.90;;;0.30;;
50954;SDS011;36966;48.064;-0.792;2022-08-24T02:08:41;2.97;;;0.30;;
50954;SDS011;36966;48.064;-0.792;2022-08-24T02:11:00;0.40;;;0.35;;
50954;SDS011;36966;48.064;-0.792;2022-08-24T02:13:21;0.65;;;0.47;;
50954;SDS011;36966;48.064;-0.792;2022-08-24T02:15:40;1.35;;;0.28;;
50954;SDS011;36966;48.064;-0.792;2022-08-24T02:18:00;0.90;;;0.60;;
50954;SDS011;36966;48.064;-0.792;2022-08-24T02:20:19;0.50;;;0.38;;
50954;SDS011;36966;48.064;-0.792;2022-08-24T02:22:39;2.47;;;0.20;;
50954;SDS011;36966;48.064;-0.792;2022-08-24T02:24:58;1.23;;;0.30;;
50954;SDS011;36966;48.064;-0.792;2022-08-24T02:27:18;0.15;;;0.10;;
50954;SDS011;36966;48.064;-0.792;2022-08-24T02:29:38;3.13;;;0.20;;
50954;SDS011;36966;48.064;-0.792;2022-08-24T02:31:57;0.68;;;0.30;;
50954;SDS011;36966;48.064;-0.792;2022-08-24T02:34:16;0.85;;;0.25;;
50954;SDS011;36966;48.064;-0.792;2022-08-24T02:36:36;0.68;;;0.38;;
50954;SDS011;36966;48.064;-0.792;2022-08-24T02:38:56;0.55;;;0.35;;
50954;SDS011;36966;48.064;-0.792;2022-08-24T02:41:16;3.55;;;0.52;;
50954;SDS011;36966;48.064;-0.792;2022-08-24T02:43:35;0.93;;;0.20;;
50954;SDS011;36966;48.064;-0.792;2022-08-24T02:45:54;1.80;;;0.43;;
50954;SDS011;36966;48.064;-0.792;2022-08-24T02:48:13;5.32;;;0.40;;
50954;SDS011;36966;48.064;-0.792;2022-08-24T02:50:36;1.20;;;0.50;;
50954;SDS011;36966;48.064;-0.792;2022-08-24T02:52:57;2.25;;;0.30;;
50954;SDS011;36966;48.064;-0.792;2022-08-24T02:55:17;2.33;;;0.40;;
50954;SDS011;36966;48.064;-0.792;2022-08-24T02:57:36;0.55;;;0.40;;
50954;SDS011;36966;48.064;-0.792;2022-08-24T02:59:56;0.80;;;0.25;;
50954;SDS011;36966;48.064;-0.792;2022-08-24T03:02:15;0.68;;;0.40;;
50954;SDS011;36966;48.064;-0.792;2022-08-24T03:04:36;0.50;;;0.30;;
50954;SDS011;36966;48.064;-0.792;2022-08-24T03:06:55;1.00;;;0.40;;
50954;SDS011;36966;48.064;-0.792;2022-08-24T03:09:15;0.50;;;0.30;;
50954;SDS011;36966;48.064;-0.792;2022-08-24T03:11:34;0.40;;;0.20;;
50954;SDS011;36966;48.064;-0.792;2022-08-24T03:13:54;3.00;;;0.30;;
50954;SDS011;36966;48.064;-0.792;2022-08-24T03:16:16;3.30;;;0.40;;
50954;SDS011;36966;48.064;-0.792;2022-08-24T03:18:36;0.80;;;0.30;;
50954;SDS011;36966;48.064;-0.792;2022-08-24T03:20:56;0.50;;;0.30;;
50954;SDS011;36966;48.064;-0.792;2022-08-24T03:23:17;1.00;;;0.30;;
50954;SDS011;36966;48.064;-0.792;2022-08-24T03:25:36;1.45;;;0.47;;
50954;SDS011;36966;48.064;-0.792;2022-08-24T03:27:56;0.50;;;0.30;;
50954;SDS011;36966;48.064;-0.792;2022-08-24T03:30:15;2.65;;;0.40;;
50954;SDS011;36966;48.064;-0.792;2022-08-24T03:32:35;2.30;;;0.30;;
50954;SDS011;36966;48.064;-0.792;2022-08-24T03:34:55;2.78;;;0.60;;
50954;SDS011;36966;48.064;-0.792;2022-08-24T03:37:15;1.30;;;0.43;;
50954;SDS011;36966;48.064;-0.792;2022-08-24T03:39:34;0.85;;;0.22;;
50954;SDS011;36966;48.064;-0.792;2022-08-24T03:41:53;2.95;;;0.43;;
50954;SDS011;36966;48.064;-0.792;2022-08-24T03:44:13;0.90;;;0.40;;
50954;SDS011;36966;48.064;-0.792;2022-08-24T03:46:34;0.80;;;0.40;;
50954;SDS011;36966;48.064;-0.792;2022-08-24T03:48:56;3.03;;;0.35;;
50954;SDS011;36966;48.064;-0.792;2022-08-24T03:51:17;1.50;;;0.10;;
50954;SDS011;36966;48.064;-0.792;2022-08-24T03:53:39;0.50;;;0.40;;
50954;SDS011;36966;48.064;-0.792;2022-08-24T03:55:59;0.68;;;0.40;;
50954;SDS011;36966;48.064;-0.792;2022-08-24T03:58:18;0.65;;;0.45;;
50954;SDS011;36966;48.064;-0.792;2022-08-24T04:00:37;0.80;;;0.50;;
50954;SDS011;36966;48.064;-0.792;2022-08-24T04:02:59;2.38;;;0.65;;
50954;SDS011;36966;48.064;-0.792;2022-08-24T04:05:19;1.48;;;0.52;;
50954;SDS011;36966;48.064;-0.792;2022-08-24T04:07:38;5.57;;;0.70;;
50954;SDS011;36966;48.064;-0.792;2022-08-24T04:09:57;3.50;;;0.52;;
50954;SDS011;36966;48.064;-0.792;2022-08-24T04:12:17;0.90;;;0.40;;
50954;SDS011;36966;48.064;-0.792;2022-08-24T04:14:36;1.60;;;0.60;;
50954;SDS011;36966;48.064;-0.792;2022-08-24T04:16:56;2.08;;;0.80;;
50954;SDS011;36966;48.064;-0.792;2022-08-24T04:19:15;1.83;;;0.52;;
50954;SDS011;36966;48.064;-0.792;2022-08-24T04:21:35;2.03;;;0.60;;
50954;SDS011;36966;48.064;-0.792;2022-08-24T04:23:55;2.53;;;0.57;;
50954;SDS011;36966;48.064;-0.792;2022-08-24T04:26:15;1.40;;;1.02;;
50954;SDS011;36966;48.064;-0.792;2022-08-24T04:28:36;2.35;;;0.90;;
50954;SDS011;36966;48.064;-0.792;2022-08-24T04:30:55;0.98;;;0.45;;
50954;SDS011;36966;48.064;-0.792;2022-08-24T04:33:16;2.33;;;0.40;;
50954;SDS011;36966;48.064;-0.792;2022-08-24T04:35:37;1.25;;;0.70;;
50954;SDS011;36966;48.064;-0.792;2022-08-24T04:38:00;2.00;;;0.60;;
50954;SDS011;36966;48.064;-0.792;2022-08-24T04:40:20;3.65;;;0.80;;
50954;SDS011;36966;48.064;-0.792;2022-08-24T04:42:39;1.45;;;0.43;;
50954;SDS011;36966;48.064;-0.792;2022-08-24T04:44:58;0.50;;;0.47;;
50954;SDS011;36966;48.064;-0.792;2022-08-24T04:47:17;2.83;;;0.60;;
50954;SDS011;36966;48.064;-0.792;2022-08-24T04:49:36;3.85;;;0.70;;
50954;SDS011;36966;48.064;-0.792;2022-08-24T04:51:56;2.78;;;0.77;;
50954;SDS011;36966;48.064;-0.792;2022-08-24T04:54:15;1.10;;;0.50;;
50954;SDS011;36966;48.064;-0.792;2022-08-24T04:56:35;1.15;;;0.65;;
50954;SDS011;36966;48.064;-0.792;2022-08-24T04:58:54;2.17;;;0.75;;
50954;SDS011;36966;48.064;-0.792;2022-08-24T05:01:15;1.95;;;0.73;;
50954;SDS011;36966;48.064;-0.792;2022-08-24T05:03:37;2.75;;;0.60;;
50954;SDS011;36966;48.064;-0.792;2022-08-24T05:05:56;0.82;;;0.60;;
50954;SDS011;36966;48.064;-0.792;2022-08-24T05:08:17;4.85;;;0.50;;
50954;SDS011;36966;48.064;-0.792;2022-08-24T05:10:37;3.47;;;0.95;;
50954;SDS011;36966;48.064;-0.792;2022-08-24T05:12:58;3.33;;;0.70;;
50954;SDS011;36966;48.064;-0.792;2022-08-24T05:15:17;1.70;;;0.60;;
50954;SDS011;36966;48.064;-0.792;2022-08-24T05:17:37;1.70;;;0.50;;
50954;SDS011;36966;48.064;-0.792;2022-08-24T05:19:58;0.77;;;0.45;;
50954;SDS011;36966;48.064;-0.792;2022-08-24T05:22:18;1.73;;;0.65;;
50954;SDS011;36966;48.064;-0.792;2022-08-24T05:24:38;0.90;;;0.50;;
50954;SDS011;36966;48.064;-0.792;2022-08-24T05:26:57;4.93;;;0.70;;
50954;SDS011;36966;48.064;-0.792;2022-08-24T05:29:18;3.75;;;0.80;;
50954;SDS011;36966;48.064;-0.792;2022-08-24T05:31:41;1.10;;;0.50;;
50954;SDS011;36966;48.064;-0.792;2022-08-24T05:34:02;1.33;;;0.60;;
50954;SDS011;36966;48.064;-0.792;2022-08-24T05:36:30;3.03;;;0.65;;
50954;SDS011;36966;48.064;-0.792;2022-08-24T05:38:51;3.22;;;0.80;;
50954;SDS011;36966;48.064;-0.792;2022-08-24T05:41:12;2.42;;;0.60;;
50954;SDS011;36966;48.064;-0.792;2022-08-24T05:43:32;4.13;;;0.63;;
50954;SDS011;36966;48.064;-0.792;2022-08-24T05:45:51;0.98;;;0.60;;
50954;SDS011;36966;48.064;-0.792;2022-08-24T05:48:10;1.35;;;0.60;;
50954;SDS011;36966;48.064;-0.792;2022-08-24T05:50:30;1.00;;;0.47;;
50954;SDS011;36966;48.064;-0.792;2022-08-24T05:52:49;5.03;;;0.60;;
50954;SDS011;36966;48.064;-0.792;2022-08-24T05:55:08;3.58;;;1.05;;
50954;SDS011;36966;48.064;-0.792;2022-08-24T05:57:30;2.05;;;0.90;;
50954;SDS011;36966;48.064;-0.792;2022-08-24T05:59:50;4.35;;;3.10;;
50954;SDS011;36966;48.064;-0.792;2022-08-24T06:02:10;4.65;;;2.95;;
50954;SDS011;36966;48.064;-0.792;2022-08-24T06:04:30;4.50;;;2.75;;
50954;SDS011;36966;48.064;-0.792;2022-08-24T06:06:49;4.13;;;2.50;;
50954;SDS011;36966;48.064;-0.792;2022-08-24T06:09:09;3.30;;;2.47;;
50954;SDS011;36966;48.064;-0.792;2022-08-24T06:11:30;4.20;;;2.13;;
50954;SDS011;36966;48.064;-0.792;2022-08-24T06:13:53;3.92;;;2.58;;
50954;SDS011;36966;48.064;-0.792;2022-08-24T06:16:15;1.77;;;1.42;;
50954;SDS011;36966;48.064;-0.792;2022-08-24T06:18:34;2.08;;;1.50;;
50954;SDS011;36966;48.064;-0.792;2022-08-24T06:20:54;3.28;;;1.98;;
50954;SDS011;36966;48.064;-0.792;2022-08-24T06:23:13;6.40;;;3.10;;
50954;SDS011;36966;48.064;-0.792;2022-08-24T06:25:32;6.53;;;4.35;;
50954;SDS011;36966;48.064;-0.792;2022-08-24T06:28:11;7.38;;;4.95;;
50954;SDS011;36966;48.064;-0.792;2022-08-24T06:30:30;7.00;;;3.75;;
50954;SDS011;36966;48.064;-0.792;2022-08-24T06:32:50;6.13;;;4.07;;
50954;SDS011;36966;48.064;-0.792;2022-08-24T06:35:09;4.80;;;4.05;;
50954;SDS011;36966;48.064;-0.792;2022-08-24T06:37:28;5.45;;;4.03;;
50954;SDS011;36966;48.064;-0.792;2022-08-24T06:39:47;4.68;;;3.13;;
50954;SDS011;36966;48.064;-0.792;2022-08-24T06:42:06;3.30;;;2.80;;
50954;SDS011;36966;48.064;-0.792;2022-08-24T06:44:26;4.57;;;3.58;;
50954;SDS011;36966;48.064;-0.792;2022-08-24T06:46:45;11.85;;;3.88;;
50954;SDS011;36966;48.064;-0.792;2022-08-24T06:49:05;5.70;;;3.38;;
50954;SDS011;36966;48.064;-0.792;2022-08-24T06:51:25;4.22;;;3.25;;
50954;SDS011;36966;48.064;-0.792;2022-08-24T06:53:45;4.53;;;3.08;;
50954;SDS011;36966;48.064;-0.792;2022-08-24T06:56:06;4.90;;;3.33;;
50954;SDS011;36966;48.064;-0.792;2022-08-24T06:58:26;9.63;;;3.17;;
50954;SDS011;36966;48.064;-0.792;2022-08-24T07:00:49;5.35;;;3.45;;
50954;SDS011;36966;48.064;-0.792;2022-08-24T07:03:09;5.18;;;2.72;;
50954;SDS011;36966;48.064;-0.792;2022-08-24T07:05:29;4.88;;;2.75;;
50954;SDS011;36966;48.064;-0.792;2022-08-24T07:07:48;5.45;;;2.80;;
50954;SDS011;36966;48.064;-0.792;2022-08-24T07:10:07;6.07;;;2.67;;
50954;SDS011;36966;48.064;-0.792;2022-08-24T07:12:27;5.95;;;2.47;;
50954;SDS011;36966;48.064;-0.792;2022-08-24T07:14:47;4.28;;;2.22;;
50954;SDS011;36966;48.064;-0.792;2022-08-24T07:17:08;7.20;;;3.25;;
50954;SDS011;36966;48.064;-0.792;2022-08-24T07:19:27;6.65;;;2.70;;
50954;SDS011;36966;48.064;-0.792;2022-08-24T07:21:46;10.18;;;2.05;;
50954;SDS011;36966;48.064;-0.792;2022-08-24T07:24:06;4.65;;;2.40;;
50954;SDS011;36966;48.064;-0.792;2022-08-24T07:26:26;5.03;;;2.25;;
50954;SDS011;36966;48.064;-0.792;2022-08-24T07:28:49;3.42;;;1.95;;
50954;SDS011;36966;48.064;-0.792;2022-08-24T07:31:18;4.70;;;2.58;;
50954;SDS011;36966;48.064;-0.792;2022-08-24T07:33:38;3.10;;;1.83;;
50954;SDS011;36966;48.064;-0.792;2022-08-24T07:35:58;5.43;;;1.92;;
50954;SDS011;36966;48.064;-0.792;2022-08-24T07:38:17;9.52;;;2.20;;
50954;SDS011;36966;48.064;-0.792;2022-08-24T07:40:37;3.63;;;2.08;;
50954;SDS011;36966;48.064;-0.792;2022-08-24T07:42:56;5.80;;;2.17;;
50954;SDS011;36966;48.064;-0.792;2022-08-24T07:45:16;5.13;;;1.77;;
50954;SDS011;36966;48.064;-0.792;2022-08-24T07:47:36;5.47;;;1.73;;
50954;SDS011;36966;48.064;-0.792;2022-08-24T07:49:55;4.93;;;1.88;;
50954;SDS011;36966;48.064;-0.792;2022-08-24T07:52:14;2.97;;;1.85;;
50954;SDS011;36966;48.064;-0.792;2022-08-24T07:54:34;4.85;;;1.45;;
50954;SDS011;36966;48.064;-0.792;2022-08-24T07:56:54;2.60;;;1.60;;
50954;SDS011;36966;48.064;-0.792;2022-08-24T07:59:13;1.48;;;1.02;;
50954;SDS011;36966;48.064;-0.792;2022-08-24T08:01:33;3.35;;;1.55;;
50954;SDS011;36966;48.064;-0.792;2022-08-24T08:03:52;8.05;;;1.48;;
50954;SDS011;36966;48.064;-0.792;2022-08-24T08:06:11;1.50;;;0.93;;
50954;SDS011;36966;48.064;-0.792;2022-08-24T08:08:33;6.78;;;1.45;;
50954;SDS011;36966;48.064;-0.792;2022-08-24T08:10:53;1.13;;;0.93;;
50954;SDS011;36966;48.064;-0.792;2022-08-24T08:13:13;2.78;;;1.55;;
50954;SDS011;36966;48.064;-0.792;2022-08-24T08:15:33;2.47;;;1.23;;
50954;SDS011;36966;48.064;-0.792;2022-08-24T08:17:53;3.85;;;1.30;;
50954;SDS011;36966;48.064;-0.792;2022-08-24T08:20:12;5.75;;;1.05;;
50954;SDS011;36966;48.064;-0.792;2022-08-24T08:22:32;3.58;;;1.15;;
50954;SDS011;36966;48.064;-0.792;2022-08-24T08:25:10;2.28;;;1.52;;
50954;SDS011;36966;48.064;-0.792;2022-08-24T08:27:30;3.30;;;0.82;;
50954;SDS011;36966;48.064;-0.792;2022-08-24T08:29:50;2.42;;;1.30;;
50954;SDS011;36966;48.064;-0.792;2022-08-24T08:32:10;3.92;;;0.95;;
50954;SDS011;36966;48.064;-0.792;2022-08-24T08:34:32;3.17;;;1.13;;
50954;SDS011;36966;48.064;-0.792;2022-08-24T08:36:52;2.00;;;1.17;;
50954;SDS011;36966;48.064;-0.792;2022-08-24T08:39:13;3.60;;;1.10;;
50954;SDS011;36966;48.064;-0.792;2022-08-24T08:44:26;5.40;;;1.15;;
50954;SDS011;36966;48.064;-0.792;2022-08-24T08:57:50;1.83;;;0.60;;
50954;SDS011;36966;48.064;-0.792;2022-08-24T09:01:18;0.80;;;0.50;;
50954;SDS011;36966;48.064;-0.792;2022-08-24T09:03:46;1.90;;;0.50;;
50954;SDS011;36966;48.064;-0.792;2022-08-24T09:11:49;0.82;;;0.32;;
50954;SDS011;36966;48.064;-0.792;2022-08-24T09:35:00;0.93;;;0.20;;
50954;SDS011;36966;48.064;-0.792;2022-08-24T09:37:33;3.55;;;0.43;;
50954;SDS011;36966;48.064;-0.792;2022-08-24T09:42:49;3.92;;;0.20;;
50954;SDS011;36966;48.064;-0.792;2022-08-24T09:53:23;0.75;;;0.30;;
50954;SDS011;36966;48.064;-0.792;2022-08-24T10:02:28;0.80;;;0.13;;
50954;SDS011;36966;48.064;-0.792;2022-08-24T10:07:23;0.85;;;0.30;;
50954;SDS011;36966;48.064;-0.792;2022-08-24T10:09:57;0.50;;;0.15;;
50954;SDS011;36966;48.064;-0.792;2022-08-24T10:15:07;1.17;;;0.20;;
50954;SDS011;36966;48.064;-0.792;2022-08-24T10:27:54;0.60;;;0.35;;
50954;SDS011;36966;48.064;-0.792;2022-08-24T10:30:45;0.22;;;0.15;;
50954;SDS011;36966;48.064;-0.792;2022-08-24T10:33:22;0.20;;;0.10;;
50954;SDS011;36966;48.064;-0.792;2022-08-24T10:38:24;0.30;;;0.20;;
50954;SDS011;36966;48.064;-0.792;2022-08-24T10:46:42;0.22;;;0.20;;
50954;SDS011;36966;48.064;-0.792;2022-08-24T10:52:27;0.20;;;0.10;;
50954;SDS011;36966;48.064;-0.792;2022-08-24T10:54:52;0.15;;;0.10;;
50954;SDS011;36966;48.064;-0.792;2022-08-24T10:57:14;0.60;;;0.10;;
50954;SDS011;36966;48.064;-0.792;2022-08-24T11:02:45;0.28;;;0.10;;
50954;SDS011;36966;48.064;-0.792;2022-08-24T11:05:06;3.03;;;0.77;;
50954;SDS011;36966;48.064;-0.792;2022-08-24T11:07:54;3.50;;;0.20;;
50954;SDS011;36966;48.064;-0.792;2022-08-24T11:10:26;0.80;;;0.20;;
50954;SDS011;36966;48.064;-0.792;2022-08-24T11:12:49;0.80;;;0.35;;
50954;SDS011;36966;48.064;-0.792;2022-08-24T11:15:09;0.20;;;0.10;;
50954;SDS011;36966;48.064;-0.792;2022-08-24T11:17:35;0.32;;;0.20;;
50954;SDS011;36966;48.064;-0.792;2022-08-24T11:19:55;0.10;;;0.10;;
50954;SDS011;36966;48.064;-0.792;2022-08-24T11:25:20;2.50;;;0.10;;
50954;SDS011;36966;48.064;-0.792;2022-08-24T11:27:41;2.92;;;0.10;;
50954;SDS011;36966;48.064;-0.792;2022-08-24T11:30:05;0.47;;;0.20;;
50954;SDS011;36966;48.064;-0.792;2022-08-24T11:35:07;2.25;;;0.10;;
50954;SDS011;36966;48.064;-0.792;2022-08-24T11:37:42;0.17;;;0.10;;
50954;SDS011;36966;48.064;-0.792;2022-08-24T11:40:03;2.17;;;0.10;;
50954;SDS011;36966;48.064;-0.792;2022-08-24T11:52:54;3.55;;;0.20;;
50954;SDS011;36966;48.064;-0.792;2022-08-24T11:55:32;0.52;;;0.20;;
50954;SDS011;36966;48.064;-0.792;2022-08-24T12:00:43;0.10;;;0.10;;
50954;SDS011;36966;48.064;-0.792;2022-08-24T12:08:18;0.13;;;0.10;;
50954;SDS011;36966;48.064;-0.792;2022-08-24T12:10:50;0.15;;;0.13;;
50954;SDS011;36966;48.064;-0.792;2022-08-24T12:13:25;1.23;;;0.10;;
50954;SDS011;36966;48.064;-0.792;2022-08-24T12:16:06;1.02;;;0.25;;
50954;SDS011;36966;48.064;-0.792;2022-08-24T12:21:04;1.38;;;0.10;;
50954;SDS011;36966;48.064;-0.792;2022-08-24T12:23:32;4.25;;;0.40;;
50954;SDS011;36966;48.064;-0.792;2022-08-24T12:26:13;0.40;;;0.10;;
50954;SDS011;36966;48.064;-0.792;2022-08-24T12:31:10;2.65;;;0.10;;
50954;SDS011;36966;48.064;-0.792;2022-08-24T12:33:43;0.98;;;0.10;;
50954;SDS011;36966;48.064;-0.792;2022-08-24T12:36:10;0.55;;;0.05;;
50954;SDS011;36966;48.064;-0.792;2022-08-24T12:38:39;0.13;;;0.10;;
50954;SDS011;36966;48.064;-0.792;2022-08-24T12:46:18;1.60;;;0.10;;
50954;SDS011;36966;48.064;-0.792;2022-08-24T12:48:44;0.28;;;0.10;;
50954;SDS011;36966;48.064;-0.792;2022-08-24T13:01:59;1.33;;;0.20;;
50954;SDS011;36966;48.064;-0.792;2022-08-24T13:04:30;0.70;;;0.17;;
50954;SDS011;36966;48.064;-0.792;2022-08-24T13:09:42;2.38;;;0.10;;
50954;SDS011;36966;48.064;-0.792;2022-08-24T13:14:48;0.17;;;0.10;;
50954;SDS011;36966;48.064;-0.792;2022-08-24T13:17:09;0.20;;;0.20;;
50954;SDS011;36966;48.064;-0.792;2022-08-24T13:19:31;0.10;;;0.10;;
50954;SDS011;36966;48.064;-0.792;2022-08-24T13:26:48;0.20;;;0.20;;
50954;SDS011;36966;48.064;-0.792;2022-08-24T13:29:07;0.00;;;0.00;;
50954;SDS011;36966;48.064;-0.792;2022-08-24T13:31:29;0.10;;;0.00;;
50954;SDS011;36966;48.064;-0.792;2022-08-24T13:36:40;2.13;;;0.10;;
50954;SDS011;36966;48.064;-0.792;2022-08-24T13:46:44;1.00;;;0.10;;
50954;SDS011;36966;48.064;-0.792;2022-08-24T13:49:31;0.28;;;0.10;;
50954;SDS011;36966;48.064;-0.792;2022-08-24T13:52:09;2.47;;;0.20;;
50954;SDS011;36966;48.064;-0.792;2022-08-24T13:54:35;0.30;;;0.20;;
50954;SDS011;36966;48.064;-0.792;2022-08-24T14:00:30;0.57;;;0.15;;
50954;SDS011;36966;48.064;-0.792;2022-08-24T14:03:14;0.25;;;0.10;;
50954;SDS011;36966;48.064;-0.792;2022-08-24T14:05:48;2.40;;;0.20;;
50954;SDS011;36966;48.064;-0.792;2022-08-24T14:10:49;1.55;;;0.10;;
50954;SDS011;36966;48.064;-0.792;2022-08-24T14:13:26;0.20;;;0.10;;
50954;SDS011;36966;48.064;-0.792;2022-08-24T14:16:09;1.75;;;0.10;;
50954;SDS011;36966;48.064;-0.792;2022-08-24T14:19:47;2.05;;;0.20;;
50954;SDS011;36966;48.064;-0.792;2022-08-24T14:22:00;1.55;;;0.17;;
50954;SDS011;36966;48.064;-0.792;2022-08-24T14:24:34;0.52;;;0.20;;
50954;SDS011;36966;48.064;-0.792;2022-08-24T14:29:53;0.47;;;0.13;;
50954;SDS011;36966;48.064;-0.792;2022-08-24T14:32:36;3.92;;;0.20;;
50954;SDS011;36966;48.064;-0.792;2022-08-24T14:40:24;0.10;;;0.10;;
50954;SDS011;36966;48.064;-0.792;2022-08-24T14:43:00;1.75;;;0.10;;
50954;SDS011;36966;48.064;-0.792;2022-08-24T14:50:47;0.95;;;0.10;;
50954;SDS011;36966;48.064;-0.792;2022-08-24T14:53:23;3.50;;;0.20;;
50954;SDS011;36966;48.064;-0.792;2022-08-24T14:58:56;0.50;;;0.10;;
50954;SDS011;36966;48.064;-0.792;2022-08-24T15:01:38;0.45;;;0.10;;
50954;SDS011;36966;48.064;-0.792;2022-08-24T15:07:23;1.92;;;0.20;;
50954;SDS011;36966;48.064;-0.792;2022-08-24T15:09:45;2.00;;;0.20;;
50954;SDS011;36966;48.064;-0.792;2022-08-24T15:12:15;0.73;;;0.25;;
50954;SDS011;36966;48.064;-0.792;2022-08-24T15:14:51;0.10;;;0.05;;
50954;SDS011;36966;48.064;-0.792;2022-08-24T15:17:18;2.15;;;0.40;;
50954;SDS011;36966;48.064;-0.792;2022-08-24T15:19:53;0.73;;;0.20;;
50954;SDS011;36966;48.064;-0.792;2022-08-24T15:22:38;0.15;;;0.10;;
50954;SDS011;36966;48.064;-0.792;2022-08-24T15:25:30;1.50;;;0.17;;
50954;SDS011;36966;48.064;-0.792;2022-08-24T15:28:46;0.50;;;0.20;;
50954;SDS011;36966;48.064;-0.792;2022-08-24T15:31:01;1.38;;;0.30;;
50954;SDS011;36966;48.064;-0.792;2022-08-24T15:33:21;0.20;;;0.10;;
50954;SDS011;36966;48.064;-0.792;2022-08-24T15:35:44;0.30;;;0.10;;
50954;SDS011;36966;48.064;-0.792;2022-08-24T15:40:41;0.20;;;0.10;;
50954;SDS011;36966;48.064;-0.792;2022-08-24T15:43:01;3.13;;;0.70;;
50954;SDS011;36966;48.064;-0.792;2022-08-24T15:45:21;6.85;;;0.20;;
50954;SDS011;36966;48.064;-0.792;2022-08-24T15:47:42;0.28;;;0.10;;
50954;SDS011;36966;48.064;-0.792;2022-08-24T15:55:31;0.40;;;0.10;;
50954;SDS011;36966;48.064;-0.792;2022-08-24T15:57:54;2.67;;;0.22;;
50954;SDS011;36966;48.064;-0.792;2022-08-24T16:00:19;0.15;;;0.10;;
50954;SDS011;36966;48.064;-0.792;2022-08-24T16:03:42;0.10;;;0.10;;
50954;SDS011;36966;48.064;-0.792;2022-08-24T16:06:16;0.65;;;0.20;;
50954;SDS011;36966;48.064;-0.792;2022-08-24T16:11:25;3.67;;;0.20;;
50954;SDS011;36966;48.064;-0.792;2022-08-24T16:13:48;0.50;;;0.20;;
50954;SDS011;36966;48.064;-0.792;2022-08-24T16:16:10;0.60;;;0.30;;
50954;SDS011;36966;48.064;-0.792;2022-08-24T16:18:43;2.20;;;0.15;;
50954;SDS011;36966;48.064;-0.792;2022-08-24T16:21:08;3.00;;;0.20;;
50954;SDS011;36966;48.064;-0.792;2022-08-24T16:23:33;0.85;;;0.20;;
50954;SDS011;36966;48.064;-0.792;2022-08-24T16:28:40;0.20;;;0.20;;
50954;SDS011;36966;48.064;-0.792;2022-08-24T16:31:00;0.20;;;0.10;;
50954;SDS011;36966;48.064;-0.792;2022-08-24T16:35:54;0.50;;;0.10;;
50954;SDS011;36966;48.064;-0.792;2022-08-24T16:38:14;2.53;;;0.20;;
50954;SDS011;36966;48.064;-0.792;2022-08-24T16:40:33;5.63;;;0.52;;
50954;SDS011;36966;48.064;-0.792;2022-08-24T16:42:53;0.25;;;0.20;;
50954;SDS011;36966;48.064;-0.792;2022-08-24T16:45:17;0.30;;;0.10;;
50954;SDS011;36966;48.064;-0.792;2022-08-24T16:47:39;1.40;;;0.10;;
50954;SDS011;36966;48.064;-0.792;2022-08-24T16:49:58;1.60;;;0.10;;
50954;SDS011;36966;48.064;-0.792;2022-08-24T16:52:17;0.10;;;0.10;;
50954;SDS011;36966;48.064;-0.792;2022-08-24T16:54:37;1.98;;;0.22;;
50954;SDS011;36966;48.064;-0.792;2022-08-24T16:56:57;0.25;;;0.15;;
50954;SDS011;36966;48.064;-0.792;2022-08-24T16:59:26;0.25;;;0.15;;
50954;SDS011;36966;48.064;-0.792;2022-08-24T17:01:47;1.58;;;0.30;;
50954;SDS011;36966;48.064;-0.792;2022-08-24T17:04:07;3.45;;;0.30;;
50954;SDS011;36966;48.064;-0.792;2022-08-24T17:06:26;0.45;;;0.20;;
50954;SDS011;36966;48.064;-0.792;2022-08-24T17:08:46;4.95;;;0.22;;
50954;SDS011;36966;48.064;-0.792;2022-08-24T17:11:06;0.20;;;0.10;;
50954;SDS011;36966;48.064;-0.792;2022-08-24T17:13:27;1.75;;;0.15;;
50954;SDS011;36966;48.064;-0.792;2022-08-24T17:15:46;0.65;;;0.22;;
50954;SDS011;36966;48.064;-0.792;2022-08-24T17:18:07;0.63;;;0.10;;
50954;SDS011;36966;48.064;-0.792;2022-08-24T17:20:28;0.10;;;0.10;;
50954;SDS011;36966;48.064;-0.792;2022-08-24T17:22:48;0.13;;;0.10;;
50954;SDS011;36966;48.064;-0.792;2022-08-24T17:25:07;1.23;;;0.20;;
50954;SDS011;36966;48.064;-0.792;2022-08-24T17:27:31;1.58;;;0.20;;
50954;SDS011;36966;48.064;-0.792;2022-08-24T17:29:51;1.58;;;0.40;;